Terminal Aerodrome Forecast
Issued by NWS Grand Forks, ND

Home | Current Version | Previous Version | Graphics & Text | Print | Product List | Glossary On
Versions: 1 2 3 4 5 6 7 8 9 10 11 12 13 14 15 16
000
FTUS43 KFGF 190500
TAFGFK
TAF
KGFK 190538Z 1906/2006 32020G29KT P6SM FEW030 OVC050
     FM190700 31019G27KT P6SM OVC025
     FM191900 31020G29KT P6SM BKN050
     FM200000 31012KT P6SM SCT050 BKN250=

USA.gov is the U.S. government's official web portal to all federal, state and local government web resources and services.